sensor_id;sensor_type;location;lat;lon;timestamp;P1;durP1;ratioP1;P2;durP2;ratioP2
14092;SDS011;7123;49.468;10.992;2023-03-23T00:01:17;5.80;;;5.20;;
14092;SDS011;7123;49.468;10.992;2023-03-23T00:03:48;6.00;;;5.40;;
14092;SDS011;7123;49.468;10.992;2023-03-23T00:06:16;6.77;;;5.70;;
14092;SDS011;7123;49.468;10.992;2023-03-23T00:08:49;6.17;;;5.37;;
14092;SDS011;7123;49.468;10.992;2023-03-23T00:11:21;6.90;;;5.67;;
14092;SDS011;7123;49.468;10.992;2023-03-23T00:13:51;6.47;;;5.40;;
14092;SDS011;7123;49.468;10.992;2023-03-23T00:16:21;6.30;;;5.10;;
14092;SDS011;7123;49.468;10.992;2023-03-23T00:18:56;8.43;;;5.43;;
14092;SDS011;7123;49.468;10.992;2023-03-23T00:21:34;5.67;;;5.13;;
14092;SDS011;7123;49.468;10.992;2023-03-23T00:24:03;7.13;;;5.30;;
14092;SDS011;7123;49.468;10.992;2023-03-23T00:26:32;7.00;;;5.03;;
14092;SDS011;7123;49.468;10.992;2023-03-23T00:29:03;6.43;;;5.00;;
14092;SDS011;7123;49.468;10.992;2023-03-23T00:31:29;5.93;;;5.33;;
14092;SDS011;7123;49.468;10.992;2023-03-23T00:34:01;7.10;;;5.10;;
14092;SDS011;7123;49.468;10.992;2023-03-23T00:36:32;3.73;;;3.37;;
14092;SDS011;7123;49.468;10.992;2023-03-23T00:39:01;5.17;;;4.23;;
14092;SDS011;7123;49.468;10.992;2023-03-23T00:41:28;5.17;;;4.30;;
14092;SDS011;7123;49.468;10.992;2023-03-23T00:43:55;4.47;;;4.00;;
14092;SDS011;7123;49.468;10.992;2023-03-23T00:46:22;5.53;;;3.70;;
14092;SDS011;7123;49.468;10.992;2023-03-23T00:48:49;6.13;;;3.80;;
14092;SDS011;7123;49.468;10.992;2023-03-23T00:51:19;4.57;;;4.17;;
14092;SDS011;7123;49.468;10.992;2023-03-23T00:53:45;4.40;;;4.00;;
14092;SDS011;7123;49.468;10.992;2023-03-23T00:56:10;7.30;;;4.70;;
14092;SDS011;7123;49.468;10.992;2023-03-23T00:58:36;4.00;;;3.60;;
14092;SDS011;7123;49.468;10.992;2023-03-23T01:01:02;4.87;;;4.47;;
14092;SDS011;7123;49.468;10.992;2023-03-23T01:03:28;8.07;;;3.70;;
14092;SDS011;7123;49.468;10.992;2023-03-23T01:05:54;6.87;;;4.00;;
14092;SDS011;7123;49.468;10.992;2023-03-23T01:08:21;4.30;;;3.90;;
14092;SDS011;7123;49.468;10.992;2023-03-23T01:10:48;4.60;;;3.87;;
14092;SDS011;7123;49.468;10.992;2023-03-23T01:13:14;4.30;;;3.90;;
14092;SDS011;7123;49.468;10.992;2023-03-23T01:15:40;4.53;;;3.57;;
14092;SDS011;7123;49.468;10.992;2023-03-23T01:18:06;5.70;;;3.50;;
14092;SDS011;7123;49.468;10.992;2023-03-23T01:20:34;3.60;;;3.30;;
14092;SDS011;7123;49.468;10.992;2023-03-23T01:23:01;3.90;;;3.53;;
14092;SDS011;7123;49.468;10.992;2023-03-23T01:25:28;3.97;;;3.53;;
14092;SDS011;7123;49.468;10.992;2023-03-23T01:27:56;3.60;;;3.30;;
14092;SDS011;7123;49.468;10.992;2023-03-23T01:30:22;4.13;;;3.60;;
14092;SDS011;7123;49.468;10.992;2023-03-23T01:32:48;3.57;;;3.20;;
14092;SDS011;7123;49.468;10.992;2023-03-23T01:35:14;3.53;;;3.03;;
14092;SDS011;7123;49.468;10.992;2023-03-23T01:37:41;3.20;;;2.77;;
14092;SDS011;7123;49.468;10.992;2023-03-23T01:40:07;4.07;;;3.07;;
14092;SDS011;7123;49.468;10.992;2023-03-23T01:42:35;4.30;;;2.77;;
14092;SDS011;7123;49.468;10.992;2023-03-23T01:47:54;3.67;;;2.90;;
14092;SDS011;7123;49.468;10.992;2023-03-23T01:50:25;3.37;;;2.50;;
14092;SDS011;7123;49.468;10.992;2023-03-23T01:52:53;2.97;;;2.77;;
14092;SDS011;7123;49.468;10.992;2023-03-23T01:55:21;3.77;;;2.60;;
14092;SDS011;7123;49.468;10.992;2023-03-23T01:57:50;4.87;;;2.40;;
14092;SDS011;7123;49.468;10.992;2023-03-23T02:00:16;2.30;;;2.10;;
14092;SDS011;7123;49.468;10.992;2023-03-23T02:02:43;2.60;;;2.20;;
14092;SDS011;7123;49.468;10.992;2023-03-23T02:05:14;2.60;;;2.40;;
14092;SDS011;7123;49.468;10.992;2023-03-23T02:07:44;2.20;;;2.00;;
14092;SDS011;7123;49.468;10.992;2023-03-23T02:10:12;2.37;;;2.17;;
14092;SDS011;7123;49.468;10.992;2023-03-23T02:12:38;2.60;;;2.17;;
14092;SDS011;7123;49.468;10.992;2023-03-23T02:15:04;3.60;;;2.50;;
14092;SDS011;7123;49.468;10.992;2023-03-23T02:17:31;2.17;;;2.07;;
14092;SDS011;7123;49.468;10.992;2023-03-23T02:26:03;4.10;;;2.20;;
14092;SDS011;7123;49.468;10.992;2023-03-23T02:36:38;2.30;;;1.70;;
14092;SDS011;7123;49.468;10.992;2023-03-23T02:39:24;2.07;;;1.97;;
14092;SDS011;7123;49.468;10.992;2023-03-23T02:42:15;2.03;;;1.83;;
14092;SDS011;7123;49.468;10.992;2023-03-23T02:44:43;4.27;;;2.10;;
14092;SDS011;7123;49.468;10.992;2023-03-23T02:47:13;1.87;;;1.77;;
14092;SDS011;7123;49.468;10.992;2023-03-23T02:49:44;1.90;;;1.80;;
14092;SDS011;7123;49.468;10.992;2023-03-23T02:52:12;2.30;;;1.80;;
14092;SDS011;7123;49.468;10.992;2023-03-23T02:54:42;2.03;;;1.83;;
14092;SDS011;7123;49.468;10.992;2023-03-23T02:57:11;2.97;;;1.70;;
14092;SDS011;7123;49.468;10.992;2023-03-23T02:59:36;2.10;;;1.60;;
14092;SDS011;7123;49.468;10.992;2023-03-23T03:02:06;2.03;;;1.50;;
14092;SDS011;7123;49.468;10.992;2023-03-23T03:04:36;1.83;;;1.73;;
14092;SDS011;7123;49.468;10.992;2023-03-23T03:07:23;1.73;;;1.47;;
14092;SDS011;7123;49.468;10.992;2023-03-23T03:09:59;1.50;;;1.40;;
14092;SDS011;7123;49.468;10.992;2023-03-23T03:17:55;1.70;;;1.60;;
14092;SDS011;7123;49.468;10.992;2023-03-23T03:20:22;1.90;;;1.60;;
14092;SDS011;7123;49.468;10.992;2023-03-23T03:22:51;1.73;;;1.30;;
14092;SDS011;7123;49.468;10.992;2023-03-23T03:25:18;2.90;;;1.70;;
14092;SDS011;7123;49.468;10.992;2023-03-23T03:27:45;1.57;;;1.47;;
14092;SDS011;7123;49.468;10.992;2023-03-23T03:30:15;1.10;;;1.10;;
14092;SDS011;7123;49.468;10.992;2023-03-23T03:32:44;1.60;;;1.50;;
14092;SDS011;7123;49.468;10.992;2023-03-23T03:35:14;1.90;;;1.63;;
14092;SDS011;7123;49.468;10.992;2023-03-23T03:37:40;1.80;;;1.50;;
14092;SDS011;7123;49.468;10.992;2023-03-23T03:40:07;1.97;;;1.77;;
14092;SDS011;7123;49.468;10.992;2023-03-23T03:42:38;3.10;;;1.80;;
14092;SDS011;7123;49.468;10.992;2023-03-23T03:45:05;2.37;;;1.60;;
14092;SDS011;7123;49.468;10.992;2023-03-23T03:47:32;1.90;;;1.80;;
14092;SDS011;7123;49.468;10.992;2023-03-23T03:49:58;2.77;;;2.10;;
14092;SDS011;7123;49.468;10.992;2023-03-23T03:52:23;2.27;;;1.80;;
14092;SDS011;7123;49.468;10.992;2023-03-23T03:54:49;1.93;;;1.83;;
14092;SDS011;7123;49.468;10.992;2023-03-23T03:57:16;2.57;;;1.60;;
14092;SDS011;7123;49.468;10.992;2023-03-23T03:59:42;1.73;;;1.60;;
14092;SDS011;7123;49.468;10.992;2023-03-23T04:02:09;2.80;;;2.10;;
14092;SDS011;7123;49.468;10.992;2023-03-23T04:04:38;1.80;;;1.70;;
14092;SDS011;7123;49.468;10.992;2023-03-23T04:07:04;4.07;;;1.70;;
14092;SDS011;7123;49.468;10.992;2023-03-23T04:09:30;2.73;;;1.80;;
14092;SDS011;7123;49.468;10.992;2023-03-23T04:11:56;2.23;;;2.00;;
14092;SDS011;7123;49.468;10.992;2023-03-23T04:14:22;2.17;;;1.70;;
14092;SDS011;7123;49.468;10.992;2023-03-23T04:16:47;1.60;;;1.50;;
14092;SDS011;7123;49.468;10.992;2023-03-23T04:19:16;2.30;;;2.00;;
14092;SDS011;7123;49.468;10.992;2023-03-23T04:21:43;2.63;;;1.90;;
14092;SDS011;7123;49.468;10.992;2023-03-23T04:24:14;3.20;;;2.00;;
14092;SDS011;7123;49.468;10.992;2023-03-23T04:26:40;2.00;;;1.80;;
14092;SDS011;7123;49.468;10.992;2023-03-23T04:29:07;2.60;;;1.90;;
14092;SDS011;7123;49.468;10.992;2023-03-23T04:31:33;1.90;;;1.70;;
14092;SDS011;7123;49.468;10.992;2023-03-23T04:34:00;1.93;;;1.73;;
14092;SDS011;7123;49.468;10.992;2023-03-23T04:36:26;1.77;;;1.67;;
14092;SDS011;7123;49.468;10.992;2023-03-23T04:38:59;2.70;;;1.60;;
14092;SDS011;7123;49.468;10.992;2023-03-23T04:41:25;1.90;;;1.80;;
14092;SDS011;7123;49.468;10.992;2023-03-23T04:43:51;1.97;;;1.80;;
14092;SDS011;7123;49.468;10.992;2023-03-23T04:46:18;1.80;;;1.70;;
14092;SDS011;7123;49.468;10.992;2023-03-23T04:48:46;1.87;;;1.77;;
14092;SDS011;7123;49.468;10.992;2023-03-23T04:51:12;4.50;;;1.70;;
14092;SDS011;7123;49.468;10.992;2023-03-23T04:53:38;2.40;;;1.43;;
14092;SDS011;7123;49.468;10.992;2023-03-23T04:56:06;1.57;;;1.47;;
14092;SDS011;7123;49.468;10.992;2023-03-23T04:58:32;1.70;;;1.60;;
14092;SDS011;7123;49.468;10.992;2023-03-23T05:01:00;2.50;;;1.80;;
14092;SDS011;7123;49.468;10.992;2023-03-23T05:03:26;1.93;;;1.80;;
14092;SDS011;7123;49.468;10.992;2023-03-23T05:05:52;1.50;;;1.37;;
14092;SDS011;7123;49.468;10.992;2023-03-23T05:08:19;1.60;;;1.50;;
14092;SDS011;7123;49.468;10.992;2023-03-23T05:10:56;1.60;;;1.50;;
14092;SDS011;7123;49.468;10.992;2023-03-23T05:13:22;1.60;;;1.50;;
14092;SDS011;7123;49.468;10.992;2023-03-23T05:15:48;2.00;;;1.80;;
14092;SDS011;7123;49.468;10.992;2023-03-23T05:18:14;2.00;;;1.70;;
14092;SDS011;7123;49.468;10.992;2023-03-23T05:20:41;1.83;;;1.67;;
14092;SDS011;7123;49.468;10.992;2023-03-23T05:23:07;3.20;;;1.50;;
14092;SDS011;7123;49.468;10.992;2023-03-23T05:25:33;1.60;;;1.50;;
14092;SDS011;7123;49.468;10.992;2023-03-23T05:28:02;1.63;;;1.53;;
14092;SDS011;7123;49.468;10.992;2023-03-23T05:30:28;1.77;;;1.67;;
14092;SDS011;7123;49.468;10.992;2023-03-23T05:32:54;2.17;;;1.67;;
14092;SDS011;7123;49.468;10.992;2023-03-23T05:35:21;1.70;;;1.60;;
14092;SDS011;7123;49.468;10.992;2023-03-23T05:37:46;1.77;;;1.67;;
14092;SDS011;7123;49.468;10.992;2023-03-23T05:40:12;2.97;;;1.50;;
14092;SDS011;7123;49.468;10.992;2023-03-23T05:42:38;1.97;;;1.30;;
14092;SDS011;7123;49.468;10.992;2023-03-23T05:45:07;1.60;;;1.50;;
14092;SDS011;7123;49.468;10.992;2023-03-23T05:47:34;3.70;;;1.50;;
14092;SDS011;7123;49.468;10.992;2023-03-23T05:50:00;2.97;;;1.63;;
14092;SDS011;7123;49.468;10.992;2023-03-23T05:52:26;2.60;;;1.70;;
14092;SDS011;7123;49.468;10.992;2023-03-23T05:54:51;1.60;;;1.43;;
14092;SDS011;7123;49.468;10.992;2023-03-23T05:57:18;3.27;;;1.30;;
14092;SDS011;7123;49.468;10.992;2023-03-23T05:59:46;1.97;;;1.50;;
14092;SDS011;7123;49.468;10.992;2023-03-23T06:02:12;1.93;;;1.70;;
14092;SDS011;7123;49.468;10.992;2023-03-23T06:04:39;1.60;;;1.50;;
14092;SDS011;7123;49.468;10.992;2023-03-23T06:07:06;1.77;;;1.67;;
14092;SDS011;7123;49.468;10.992;2023-03-23T06:09:32;1.70;;;1.60;;
14092;SDS011;7123;49.468;10.992;2023-03-23T06:11:58;1.50;;;1.40;;
14092;SDS011;7123;49.468;10.992;2023-03-23T06:14:24;1.83;;;1.43;;
14092;SDS011;7123;49.468;10.992;2023-03-23T06:16:51;1.80;;;1.70;;
14092;SDS011;7123;49.468;10.992;2023-03-23T06:19:16;2.00;;;1.80;;
14092;SDS011;7123;49.468;10.992;2023-03-23T06:21:42;3.07;;;1.60;;
14092;SDS011;7123;49.468;10.992;2023-03-23T06:24:08;2.00;;;1.80;;
14092;SDS011;7123;49.468;10.992;2023-03-23T06:26:35;1.80;;;1.70;;
14092;SDS011;7123;49.468;10.992;2023-03-23T06:29:04;1.60;;;1.50;;
14092;SDS011;7123;49.468;10.992;2023-03-23T06:31:38;2.37;;;1.50;;
14092;SDS011;7123;49.468;10.992;2023-03-23T06:34:07;1.67;;;1.57;;
14092;SDS011;7123;49.468;10.992;2023-03-23T06:36:33;3.53;;;1.60;;
14092;SDS011;7123;49.468;10.992;2023-03-23T06:38:59;1.60;;;1.50;;
14092;SDS011;7123;49.468;10.992;2023-03-23T06:41:26;3.03;;;1.57;;
14092;SDS011;7123;49.468;10.992;2023-03-23T06:43:51;1.50;;;1.40;;
14092;SDS011;7123;49.468;10.992;2023-03-23T06:46:18;1.93;;;1.83;;
14092;SDS011;7123;49.468;10.992;2023-03-23T06:48:44;1.70;;;1.60;;
14092;SDS011;7123;49.468;10.992;2023-03-23T06:51:10;1.77;;;1.53;;
14092;SDS011;7123;49.468;10.992;2023-03-23T06:53:36;4.97;;;1.70;;
14092;SDS011;7123;49.468;10.992;2023-03-23T06:56:02;2.30;;;1.57;;
14092;SDS011;7123;49.468;10.992;2023-03-23T06:58:27;3.43;;;1.63;;
14092;SDS011;7123;49.468;10.992;2023-03-23T07:00:56;2.47;;;1.80;;
14092;SDS011;7123;49.468;10.992;2023-03-23T07:03:23;3.10;;;1.93;;
14092;SDS011;7123;49.468;10.992;2023-03-23T07:05:49;1.93;;;1.70;;
14092;SDS011;7123;49.468;10.992;2023-03-23T07:08:16;1.90;;;1.63;;
14092;SDS011;7123;49.468;10.992;2023-03-23T07:10:41;2.97;;;1.93;;
14092;SDS011;7123;49.468;10.992;2023-03-23T07:13:07;4.83;;;1.97;;
14092;SDS011;7123;49.468;10.992;2023-03-23T07:15:33;2.30;;;2.07;;
14092;SDS011;7123;49.468;10.992;2023-03-23T07:17:58;1.80;;;1.70;;
14092;SDS011;7123;49.468;10.992;2023-03-23T07:20:24;7.10;;;1.77;;
14092;SDS011;7123;49.468;10.992;2023-03-23T07:22:50;3.50;;;1.93;;
14092;SDS011;7123;49.468;10.992;2023-03-23T07:25:16;2.33;;;1.80;;
14092;SDS011;7123;49.468;10.992;2023-03-23T07:27:43;3.40;;;2.03;;
14092;SDS011;7123;49.468;10.992;2023-03-23T07:30:11;4.90;;;2.10;;
14092;SDS011;7123;49.468;10.992;2023-03-23T07:32:37;2.30;;;1.77;;
14092;SDS011;7123;49.468;10.992;2023-03-23T07:35:02;7.77;;;2.00;;
14092;SDS011;7123;49.468;10.992;2023-03-23T07:37:29;5.07;;;1.90;;
14092;SDS011;7123;49.468;10.992;2023-03-23T07:39:54;3.47;;;1.83;;
14092;SDS011;7123;49.468;10.992;2023-03-23T07:42:20;2.07;;;1.67;;
14092;SDS011;7123;49.468;10.992;2023-03-23T07:44:46;5.33;;;2.03;;
14092;SDS011;7123;49.468;10.992;2023-03-23T07:47:12;1.83;;;1.70;;
14092;SDS011;7123;49.468;10.992;2023-03-23T07:49:38;3.50;;;1.90;;
14092;SDS011;7123;49.468;10.992;2023-03-23T07:52:04;4.90;;;2.20;;
14092;SDS011;7123;49.468;10.992;2023-03-23T07:54:30;4.20;;;1.70;;
14092;SDS011;7123;49.468;10.992;2023-03-23T07:56:56;2.60;;;2.10;;
14092;SDS011;7123;49.468;10.992;2023-03-23T07:59:21;2.97;;;2.10;;
14092;SDS011;7123;49.468;10.992;2023-03-23T08:01:47;3.63;;;1.93;;
14092;SDS011;7123;49.468;10.992;2023-03-23T08:04:13;2.07;;;1.97;;
14092;SDS011;7123;49.468;10.992;2023-03-23T08:06:40;1.83;;;1.73;;
14092;SDS011;7123;49.468;10.992;2023-03-23T08:09:06;2.73;;;2.33;;
14092;SDS011;7123;49.468;10.992;2023-03-23T08:11:37;3.77;;;2.30;;
14092;SDS011;7123;49.468;10.992;2023-03-23T08:14:03;2.67;;;2.33;;
14092;SDS011;7123;49.468;10.992;2023-03-23T08:16:30;3.43;;;2.70;;
14092;SDS011;7123;49.468;10.992;2023-03-23T08:18:57;2.20;;;2.00;;
14092;SDS011;7123;49.468;10.992;2023-03-23T08:21:23;3.57;;;2.10;;
14092;SDS011;7123;49.468;10.992;2023-03-23T08:23:49;2.03;;;1.87;;
14092;SDS011;7123;49.468;10.992;2023-03-23T08:26:15;2.83;;;2.63;;
14092;SDS011;7123;49.468;10.992;2023-03-23T08:28:42;3.67;;;2.93;;
14092;SDS011;7123;49.468;10.992;2023-03-23T08:31:09;2.70;;;2.50;;
14092;SDS011;7123;49.468;10.992;2023-03-23T08:33:37;2.87;;;2.57;;
14092;SDS011;7123;49.468;10.992;2023-03-23T08:36:03;4.87;;;2.30;;
14092;SDS011;7123;49.468;10.992;2023-03-23T08:38:29;2.90;;;2.50;;
14092;SDS011;7123;49.468;10.992;2023-03-23T08:40:59;3.10;;;2.47;;
14092;SDS011;7123;49.468;10.992;2023-03-23T08:43:28;3.10;;;2.80;;
14092;SDS011;7123;49.468;10.992;2023-03-23T08:45:53;3.53;;;2.50;;
14092;SDS011;7123;49.468;10.992;2023-03-23T08:48:20;5.67;;;2.60;;
14092;SDS011;7123;49.468;10.992;2023-03-23T08:50:46;2.03;;;1.93;;
14092;SDS011;7123;49.468;10.992;2023-03-23T08:53:12;2.90;;;2.60;;
14092;SDS011;7123;49.468;10.992;2023-03-23T08:55:38;5.47;;;2.40;;
14092;SDS011;7123;49.468;10.992;2023-03-23T08:58:04;5.03;;;3.03;;
14092;SDS011;7123;49.468;10.992;2023-03-23T09:00:31;3.83;;;2.53;;
14092;SDS011;7123;49.468;10.992;2023-03-23T09:02:57;3.27;;;2.50;;
14092;SDS011;7123;49.468;10.992;2023-03-23T09:05:25;7.07;;;3.07;;
14092;SDS011;7123;49.468;10.992;2023-03-23T09:07:53;5.77;;;2.83;;
14092;SDS011;7123;49.468;10.992;2023-03-23T09:10:21;3.33;;;2.90;;
14092;SDS011;7123;49.468;10.992;2023-03-23T09:12:48;6.10;;;2.70;;
14092;SDS011;7123;49.468;10.992;2023-03-23T09:15:15;3.83;;;3.20;;
14092;SDS011;7123;49.468;10.992;2023-03-23T09:17:45;3.13;;;2.83;;
14092;SDS011;7123;49.468;10.992;2023-03-23T09:20:13;5.60;;;2.87;;
14092;SDS011;7123;49.468;10.992;2023-03-23T09:22:41;3.93;;;2.87;;
14092;SDS011;7123;49.468;10.992;2023-03-23T09:25:10;6.67;;;3.07;;
14092;SDS011;7123;49.468;10.992;2023-03-23T09:27:41;5.23;;;3.10;;
14092;SDS011;7123;49.468;10.992;2023-03-23T09:30:11;3.17;;;2.83;;
14092;SDS011;7123;49.468;10.992;2023-03-23T09:32:39;4.13;;;3.20;;
14092;SDS011;7123;49.468;10.992;2023-03-23T09:35:06;4.70;;;3.20;;
14092;SDS011;7123;49.468;10.992;2023-03-23T09:37:38;4.30;;;2.87;;
14092;SDS011;7123;49.468;10.992;2023-03-23T09:40:05;3.30;;;2.97;;
14092;SDS011;7123;49.468;10.992;2023-03-23T09:50:46;6.30;;;2.90;;
14092;SDS011;7123;49.468;10.992;2023-03-23T09:53:24;4.93;;;2.63;;
14092;SDS011;7123;49.468;10.992;2023-03-23T09:56:00;3.33;;;3.03;;
14092;SDS011;7123;49.468;10.992;2023-03-23T09:58:27;6.43;;;2.77;;
14092;SDS011;7123;49.468;10.992;2023-03-23T10:03:46;5.53;;;2.50;;
14092;SDS011;7123;49.468;10.992;2023-03-23T10:06:16;5.37;;;2.80;;
14092;SDS011;7123;49.468;10.992;2023-03-23T10:08:50;4.33;;;3.13;;
14092;SDS011;7123;49.468;10.992;2023-03-23T10:11:31;4.17;;;3.20;;
14092;SDS011;7123;49.468;10.992;2023-03-23T10:17:09;3.07;;;2.83;;
14092;SDS011;7123;49.468;10.992;2023-03-23T10:22:42;4.23;;;3.53;;
14092;SDS011;7123;49.468;10.992;2023-03-23T10:25:24;4.90;;;3.13;;
14092;SDS011;7123;49.468;10.992;2023-03-23T10:28:00;4.67;;;2.60;;
14092;SDS011;7123;49.468;10.992;2023-03-23T10:30:38;5.57;;;2.97;;
14092;SDS011;7123;49.468;10.992;2023-03-23T10:33:12;5.43;;;2.80;;
14092;SDS011;7123;49.468;10.992;2023-03-23T10:38:31;2.83;;;2.30;;
14092;SDS011;7123;49.468;10.992;2023-03-23T10:41:10;4.63;;;2.10;;
14092;SDS011;7123;49.468;10.992;2023-03-23T10:43:41;2.20;;;1.83;;
14092;SDS011;7123;49.468;10.992;2023-03-23T10:48:47;2.70;;;1.60;;
14092;SDS011;7123;49.468;10.992;2023-03-23T10:51:16;1.73;;;1.63;;
14092;SDS011;7123;49.468;10.992;2023-03-23T10:53:46;1.70;;;1.60;;
14092;SDS011;7123;49.468;10.992;2023-03-23T11:01:42;2.00;;;1.70;;
14092;SDS011;7123;49.468;10.992;2023-03-23T11:04:11;1.73;;;1.63;;
14092;SDS011;7123;49.468;10.992;2023-03-23T11:06:38;1.70;;;1.60;;
14092;SDS011;7123;49.468;10.992;2023-03-23T11:09:21;1.70;;;1.53;;
14092;SDS011;7123;49.468;10.992;2023-03-23T11:12:02;1.37;;;1.27;;
14092;SDS011;7123;49.468;10.992;2023-03-23T11:14:32;1.50;;;1.30;;
14092;SDS011;7123;49.468;10.992;2023-03-23T11:17:03;2.20;;;1.57;;
14092;SDS011;7123;49.468;10.992;2023-03-23T11:24:33;2.50;;;1.70;;
14092;SDS011;7123;49.468;10.992;2023-03-23T11:27:06;1.53;;;1.43;;
14092;SDS011;7123;49.468;10.992;2023-03-23T11:29:33;2.33;;;1.90;;
14092;SDS011;7123;49.468;10.992;2023-03-23T11:32:05;3.03;;;1.87;;
14092;SDS011;7123;49.468;10.992;2023-03-23T11:34:45;1.67;;;1.57;;
14092;SDS011;7123;49.468;10.992;2023-03-23T11:37:25;1.50;;;1.40;;
14092;SDS011;7123;49.468;10.992;2023-03-23T11:40:00;1.93;;;1.50;;
14092;SDS011;7123;49.468;10.992;2023-03-23T11:45:40;2.27;;;1.50;;
14092;SDS011;7123;49.468;10.992;2023-03-23T11:53:47;2.97;;;1.70;;
14092;SDS011;7123;49.468;10.992;2023-03-23T11:56:33;3.93;;;1.60;;
14092;SDS011;7123;49.468;10.992;2023-03-23T11:59:01;3.00;;;1.70;;
14092;SDS011;7123;49.468;10.992;2023-03-23T12:23:22;2.40;;;1.60;;
14092;SDS011;7123;49.468;10.992;2023-03-23T12:31:38;1.40;;;1.30;;
14092;SDS011;7123;49.468;10.992;2023-03-23T12:42:24;1.43;;;0.90;;
14092;SDS011;7123;49.468;10.992;2023-03-23T12:47:40;0.90;;;0.90;;
14092;SDS011;7123;49.468;10.992;2023-03-23T12:50:24;1.87;;;0.83;;
14092;SDS011;7123;49.468;10.992;2023-03-23T12:55:43;0.80;;;0.80;;
14092;SDS011;7123;49.468;10.992;2023-03-23T12:58:20;2.03;;;0.93;;
14092;SDS011;7123;49.468;10.992;2023-03-23T13:03:39;3.23;;;0.90;;
14092;SDS011;7123;49.468;10.992;2023-03-23T13:06:17;0.80;;;0.80;;
14092;SDS011;7123;49.468;10.992;2023-03-23T13:09:02;1.07;;;0.80;;
14092;SDS011;7123;49.468;10.992;2023-03-23T13:11:38;1.10;;;1.00;;
14092;SDS011;7123;49.468;10.992;2023-03-23T13:17:00;1.37;;;1.20;;
14092;SDS011;7123;49.468;10.992;2023-03-23T13:22:58;1.20;;;1.10;;
14092;SDS011;7123;49.468;10.992;2023-03-23T13:28:20;1.50;;;1.40;;
14092;SDS011;7123;49.468;10.992;2023-03-23T13:30:54;1.10;;;1.10;;
14092;SDS011;7123;49.468;10.992;2023-03-23T13:33:20;1.20;;;1.20;;
14092;SDS011;7123;49.468;10.992;2023-03-23T13:35:46;1.50;;;1.27;;
14092;SDS011;7123;49.468;10.992;2023-03-23T13:38:24;1.53;;;1.20;;
14092;SDS011;7123;49.468;10.992;2023-03-23T13:40:55;1.30;;;1.20;;
14092;SDS011;7123;49.468;10.992;2023-03-23T13:43:41;2.13;;;1.50;;
14092;SDS011;7123;49.468;10.992;2023-03-23T13:46:28;1.30;;;1.20;;
14092;SDS011;7123;49.468;10.992;2023-03-23T13:57:02;2.10;;;1.40;;
14092;SDS011;7123;49.468;10.992;2023-03-23T13:59:48;1.40;;;1.30;;
14092;SDS011;7123;49.468;10.992;2023-03-23T14:02:31;1.73;;;1.60;;
14092;SDS011;7123;49.468;10.992;2023-03-23T14:05:49;3.97;;;1.60;;
14092;SDS011;7123;49.468;10.992;2023-03-23T14:10:57;1.80;;;1.70;;
14092;SDS011;7123;49.468;10.992;2023-03-23T14:16:15;1.40;;;1.30;;
14092;SDS011;7123;49.468;10.992;2023-03-23T14:19:03;1.60;;;1.50;;
14092;SDS011;7123;49.468;10.992;2023-03-23T14:21:39;1.37;;;1.27;;
14092;SDS011;7123;49.468;10.992;2023-03-23T14:24:16;1.53;;;1.43;;
14092;SDS011;7123;49.468;10.992;2023-03-23T14:27:01;1.50;;;1.40;;
14092;SDS011;7123;49.468;10.992;2023-03-23T14:29:34;1.80;;;1.50;;
14092;SDS011;7123;49.468;10.992;2023-03-23T14:32:00;1.60;;;1.50;;
14092;SDS011;7123;49.468;10.992;2023-03-23T14:34:27;1.67;;;1.57;;
14092;SDS011;7123;49.468;10.992;2023-03-23T14:36:56;3.13;;;1.23;;
14092;SDS011;7123;49.468;10.992;2023-03-23T14:39:32;1.43;;;1.33;;
14092;SDS011;7123;49.468;10.992;2023-03-23T14:42:04;2.47;;;1.60;;
14092;SDS011;7123;49.468;10.992;2023-03-23T14:44:35;1.83;;;1.70;;
14092;SDS011;7123;49.468;10.992;2023-03-23T14:47:06;1.47;;;1.37;;
14092;SDS011;7123;49.468;10.992;2023-03-23T14:49:37;4.73;;;1.50;;
14092;SDS011;7123;49.468;10.992;2023-03-23T14:52:14;3.03;;;1.47;;
14092;SDS011;7123;49.468;10.992;2023-03-23T14:54:41;6.63;;;1.90;;
14092;SDS011;7123;49.468;10.992;2023-03-23T14:59:49;2.27;;;1.57;;
14092;SDS011;7123;49.468;10.992;2023-03-23T15:02:37;1.67;;;1.57;;
14092;SDS011;7123;49.468;10.992;2023-03-23T15:05:09;1.60;;;1.50;;
14092;SDS011;7123;49.468;10.992;2023-03-23T15:07:38;1.90;;;1.47;;
14092;SDS011;7123;49.468;10.992;2023-03-23T15:10:08;2.80;;;1.70;;
14092;SDS011;7123;49.468;10.992;2023-03-23T15:12:38;1.90;;;1.70;;
14092;SDS011;7123;49.468;10.992;2023-03-23T15:15:04;2.90;;;1.60;;
14092;SDS011;7123;49.468;10.992;2023-03-23T15:17:36;2.10;;;1.90;;
14092;SDS011;7123;49.468;10.992;2023-03-23T15:20:09;1.87;;;1.73;;
14092;SDS011;7123;49.468;10.992;2023-03-23T15:22:47;3.07;;;1.70;;
14092;SDS011;7123;49.468;10.992;2023-03-23T15:27:52;2.03;;;1.63;;
14092;SDS011;7123;49.468;10.992;2023-03-23T15:33:03;1.70;;;1.60;;
14092;SDS011;7123;49.468;10.992;2023-03-23T15:35:35;1.60;;;1.50;;
14092;SDS011;7123;49.468;10.992;2023-03-23T15:38:04;2.47;;;1.60;;
14092;SDS011;7123;49.468;10.992;2023-03-23T15:40:33;2.23;;;2.00;;
14092;SDS011;7123;49.468;10.992;2023-03-23T15:43:17;2.00;;;1.80;;
14092;SDS011;7123;49.468;10.992;2023-03-23T15:48:22;1.80;;;1.70;;
14092;SDS011;7123;49.468;10.992;2023-03-23T15:50:48;5.13;;;2.17;;
14092;SDS011;7123;49.468;10.992;2023-03-23T15:53:32;3.03;;;2.10;;
14092;SDS011;7123;49.468;10.992;2023-03-23T15:56:02;3.30;;;2.27;;
14092;SDS011;7123;49.468;10.992;2023-03-23T15:58:30;3.37;;;1.83;;
14092;SDS011;7123;49.468;10.992;2023-03-23T16:00:59;2.10;;;1.80;;
14092;SDS011;7123;49.468;10.992;2023-03-23T16:03:36;2.50;;;2.30;;
14092;SDS011;7123;49.468;10.992;2023-03-23T16:06:09;2.47;;;1.97;;
14092;SDS011;7123;49.468;10.992;2023-03-23T16:08:49;2.70;;;2.03;;
14092;SDS011;7123;49.468;10.992;2023-03-23T16:11:20;1.90;;;1.80;;
14092;SDS011;7123;49.468;10.992;2023-03-23T16:13:47;2.30;;;2.03;;
14092;SDS011;7123;49.468;10.992;2023-03-23T16:16:16;3.07;;;1.97;;
14092;SDS011;7123;49.468;10.992;2023-03-23T16:18:46;2.57;;;2.13;;
14092;SDS011;7123;49.468;10.992;2023-03-23T16:21:13;2.73;;;2.20;;
14092;SDS011;7123;49.468;10.992;2023-03-23T16:23:41;2.23;;;2.03;;
14092;SDS011;7123;49.468;10.992;2023-03-23T16:26:09;3.70;;;2.40;;
14092;SDS011;7123;49.468;10.992;2023-03-23T16:28:36;2.50;;;2.30;;
14092;SDS011;7123;49.468;10.992;2023-03-23T16:31:03;2.57;;;2.37;;
14092;SDS011;7123;49.468;10.992;2023-03-23T16:33:30;2.27;;;2.07;;
14092;SDS011;7123;49.468;10.992;2023-03-23T16:35:57;2.20;;;2.10;;
14092;SDS011;7123;49.468;10.992;2023-03-23T16:38:24;5.50;;;2.33;;
14092;SDS011;7123;49.468;10.992;2023-03-23T16:40:51;2.17;;;2.00;;
14092;SDS011;7123;49.468;10.992;2023-03-23T16:43:18;2.43;;;2.23;;
14092;SDS011;7123;49.468;10.992;2023-03-23T16:45:45;3.47;;;2.43;;
14092;SDS011;7123;49.468;10.992;2023-03-23T16:48:13;5.67;;;2.53;;
14092;SDS011;7123;49.468;10.992;2023-03-23T16:50:42;2.00;;;1.73;;
14092;SDS011;7123;49.468;10.992;2023-03-23T16:53:09;2.47;;;2.27;;
14092;SDS011;7123;49.468;10.992;2023-03-23T16:55:37;2.57;;;2.23;;
14092;SDS011;7123;49.468;10.992;2023-03-23T16:58:04;3.87;;;1.90;;
14092;SDS011;7123;49.468;10.992;2023-03-23T17:00:42;2.83;;;2.60;;
14092;SDS011;7123;49.468;10.992;2023-03-23T17:03:11;4.20;;;2.60;;
14092;SDS011;7123;49.468;10.992;2023-03-23T17:05:38;3.43;;;3.13;;
14092;SDS011;7123;49.468;10.992;2023-03-23T17:08:05;2.87;;;2.53;;
14092;SDS011;7123;49.468;10.992;2023-03-23T17:10:32;3.13;;;2.63;;
14092;SDS011;7123;49.468;10.992;2023-03-23T17:12:59;5.57;;;3.10;;
14092;SDS011;7123;49.468;10.992;2023-03-23T17:15:26;5.50;;;2.93;;
14092;SDS011;7123;49.468;10.992;2023-03-23T17:17:54;2.43;;;2.23;;
14092;SDS011;7123;49.468;10.992;2023-03-23T17:20:21;2.93;;;2.63;;
14092;SDS011;7123;49.468;10.992;2023-03-23T17:22:48;3.80;;;3.10;;